sensor_id;sensor_type;location;lat;lon;timestamp;pressure;altitude;pressure_sealevel;temperature;humidity
66479;BME280;53294;47.912;13.526;2023-02-04T00:02:25;96751.75;;;3.71;82.76
66479;BME280;53294;47.912;13.526;2023-02-04T00:04:52;96757.78;;;3.67;83.35
66479;BME280;53294;47.912;13.526;2023-02-04T00:07:19;96760.75;;;3.70;82.72
66479;BME280;53294;47.912;13.526;2023-02-04T00:09:45;96775.53;;;3.66;81.87
66479;BME280;53294;47.912;13.526;2023-02-04T00:12:13;96773.94;;;3.65;81.77
66479;BME280;53294;47.912;13.526;2023-02-04T00:14:39;96772.19;;;3.71;81.95
66479;BME280;53294;47.912;13.526;2023-02-04T00:17:06;96748.72;;;3.68;81.81
66479;BME280;53294;47.912;13.526;2023-02-04T00:19:33;96767.09;;;3.69;81.64
66479;BME280;53294;47.912;13.526;2023-02-04T00:22:00;96772.84;;;3.78;81.48
66479;BME280;53294;47.912;13.526;2023-02-04T00:24:26;96783.81;;;3.82;81.30
66479;BME280;53294;47.912;13.526;2023-02-04T00:26:53;96778.03;;;3.85;81.01
66479;BME280;53294;47.912;13.526;2023-02-04T00:29:20;96789.44;;;3.85;81.32
66479;BME280;53294;47.912;13.526;2023-02-04T00:31:46;96783.81;;;3.82;81.25
66479;BME280;53294;47.912;13.526;2023-02-04T00:34:13;96795.69;;;3.91;81.11
66479;BME280;53294;47.912;13.526;2023-02-04T00:36:40;96795.72;;;3.79;81.01
66479;BME280;53294;47.912;13.526;2023-02-04T00:39:06;96807.94;;;3.92;80.84
66479;BME280;53294;47.912;13.526;2023-02-04T00:41:33;96798.81;;;3.88;80.70
66479;BME280;53294;47.912;13.526;2023-02-04T00:44:00;96806.41;;;3.96;80.37
66479;BME280;53294;47.912;13.526;2023-02-04T00:46:26;96797.38;;;3.97;80.24
66479;BME280;53294;47.912;13.526;2023-02-04T00:48:53;96802.84;;;3.90;80.71
66479;BME280;53294;47.912;13.526;2023-02-04T00:51:19;96801.47;;;3.88;80.84
66479;BME280;53294;47.912;13.526;2023-02-04T00:53:46;96789.97;;;3.99;80.42
66479;BME280;53294;47.912;13.526;2023-02-04T00:56:13;96814.59;;;3.94;81.05
66479;BME280;53294;47.912;13.526;2023-02-04T00:58:39;96814.13;;;3.98;80.71
66479;BME280;53294;47.912;13.526;2023-02-04T01:01:06;96807.53;;;4.00;80.36
66479;BME280;53294;47.912;13.526;2023-02-04T01:03:33;96814.72;;;4.00;80.15
66479;BME280;53294;47.912;13.526;2023-02-04T01:05:59;96813.59;;;3.84;80.45
66479;BME280;53294;47.912;13.526;2023-02-04T01:08:26;96802.50;;;3.87;80.21
66479;BME280;53294;47.912;13.526;2023-02-04T01:10:52;96804.69;;;3.90;80.19
66479;BME280;53294;47.912;13.526;2023-02-04T01:13:19;96814.28;;;3.91;80.07
66479;BME280;53294;47.912;13.526;2023-02-04T01:15:45;96814.59;;;3.94;80.06
66479;BME280;53294;47.912;13.526;2023-02-04T01:18:12;96822.81;;;3.93;80.16
66479;BME280;53294;47.912;13.526;2023-02-04T01:20:39;96815.78;;;3.87;80.09
66479;BME280;53294;47.912;13.526;2023-02-04T01:23:05;96826.19;;;3.88;79.80
66479;BME280;53294;47.912;13.526;2023-02-04T01:25:33;96834.94;;;4.01;79.85
66479;BME280;53294;47.912;13.526;2023-02-04T01:27:59;96838.97;;;4.03;79.18
66479;BME280;53294;47.912;13.526;2023-02-04T01:30:26;96822.34;;;3.96;78.92
66479;BME280;53294;47.912;13.526;2023-02-04T01:32:53;96822.34;;;3.96;79.01
66479;BME280;53294;47.912;13.526;2023-02-04T01:35:19;96827.66;;;3.96;78.39
66479;BME280;53294;47.912;13.526;2023-02-04T01:37:46;96830.91;;;3.98;77.94
66479;BME280;53294;47.912;13.526;2023-02-04T01:40:12;96826.41;;;3.99;77.91
66479;BME280;53294;47.912;13.526;2023-02-04T01:42:39;96831.63;;;3.93;78.13
66479;BME280;53294;47.912;13.526;2023-02-04T01:45:06;96832.56;;;3.87;78.02
66479;BME280;53294;47.912;13.526;2023-02-04T01:47:34;96833.28;;;3.83;77.87
66479;BME280;53294;47.912;13.526;2023-02-04T01:50:01;96852.13;;;3.81;78.04
66479;BME280;53294;47.912;13.526;2023-02-04T01:52:31;96844.47;;;3.85;77.83
66479;BME280;53294;47.912;13.526;2023-02-04T01:55:00;96851.41;;;3.86;77.38
66479;BME280;53294;47.912;13.526;2023-02-04T01:57:27;96856.59;;;3.81;77.75
66479;BME280;53294;47.912;13.526;2023-02-04T01:59:55;96860.78;;;3.76;77.77
66479;BME280;53294;47.912;13.526;2023-02-04T02:02:43;96869.88;;;3.81;77.58
66479;BME280;53294;47.912;13.526;2023-02-04T02:05:13;96870.94;;;3.80;77.98
66479;BME280;53294;47.912;13.526;2023-02-04T02:07:41;96868.84;;;3.82;77.48
66479;BME280;53294;47.912;13.526;2023-02-04T02:10:10;96872.22;;;3.77;77.30
66479;BME280;53294;47.912;13.526;2023-02-04T02:12:37;96875.09;;;3.75;77.92
66479;BME280;53294;47.912;13.526;2023-02-04T02:15:04;96868.66;;;3.71;76.66
66479;BME280;53294;47.912;13.526;2023-02-04T02:17:31;96876.72;;;3.76;76.19
66479;BME280;53294;47.912;13.526;2023-02-04T02:19:59;96869.78;;;3.75;75.91
66479;BME280;53294;47.912;13.526;2023-02-04T02:22:34;96881.59;;;3.80;75.86
66479;BME280;53294;47.912;13.526;2023-02-04T02:25:10;96889.47;;;3.74;75.54
66479;BME280;53294;47.912;13.526;2023-02-04T02:27:37;96898.00;;;3.76;75.85
66479;BME280;53294;47.912;13.526;2023-02-04T02:30:05;96897.06;;;3.71;75.45
66479;BME280;53294;47.912;13.526;2023-02-04T02:32:35;96907.22;;;3.74;75.60
66479;BME280;53294;47.912;13.526;2023-02-04T02:35:03;96909.09;;;3.73;75.38
66479;BME280;53294;47.912;13.526;2023-02-04T02:37:30;96913.72;;;3.78;75.64
66479;BME280;53294;47.912;13.526;2023-02-04T02:39:57;96914.50;;;3.78;75.00
66479;BME280;53294;47.912;13.526;2023-02-04T02:42:24;96907.47;;;3.72;75.17
66479;BME280;53294;47.912;13.526;2023-02-04T02:44:51;96909.09;;;3.73;75.29
66479;BME280;53294;47.912;13.526;2023-02-04T02:47:21;96924.34;;;3.66;75.29
66479;BME280;53294;47.912;13.526;2023-02-04T02:49:50;96925.59;;;3.75;75.25
66479;BME280;53294;47.912;13.526;2023-02-04T02:52:18;96941.09;;;3.78;74.74
66479;BME280;53294;47.912;13.526;2023-02-04T02:54:45;96940.97;;;3.73;74.65
66479;BME280;53294;47.912;13.526;2023-02-04T02:57:19;96936.22;;;3.75;74.46
66479;BME280;53294;47.912;13.526;2023-02-04T02:59:47;96945.50;;;3.73;73.97
66479;BME280;53294;47.912;13.526;2023-02-04T03:02:17;96946.06;;;3.75;73.58
66479;BME280;53294;47.912;13.526;2023-02-04T03:04:53;96943.06;;;3.71;73.43
66479;BME280;53294;47.912;13.526;2023-02-04T03:07:21;96952.06;;;3.70;73.79
66479;BME280;53294;47.912;13.526;2023-02-04T03:09:48;96947.47;;;3.66;73.98
66479;BME280;53294;47.912;13.526;2023-02-04T03:12:16;96943.66;;;3.50;73.75
66479;BME280;53294;47.912;13.526;2023-02-04T03:14:43;96952.09;;;3.47;74.65
66479;BME280;53294;47.912;13.526;2023-02-04T03:17:10;96949.53;;;3.52;73.74
66479;BME280;53294;47.912;13.526;2023-02-04T03:19:37;96955.78;;;3.46;74.14
66479;BME280;53294;47.912;13.526;2023-02-04T03:22:05;96959.91;;;3.41;74.62
66479;BME280;53294;47.912;13.526;2023-02-04T03:24:33;96963.03;;;3.38;74.71
66479;BME280;53294;47.912;13.526;2023-02-04T03:27:00;96961.44;;;3.37;75.14
66479;BME280;53294;47.912;13.526;2023-02-04T03:29:26;96962.56;;;3.30;75.12
66479;BME280;53294;47.912;13.526;2023-02-04T03:31:55;96976.66;;;3.30;75.44
66479;BME280;53294;47.912;13.526;2023-02-04T03:34:22;96982.53;;;3.32;75.45
66479;BME280;53294;47.912;13.526;2023-02-04T03:36:49;96977.81;;;3.34;75.58
66479;BME280;53294;47.912;13.526;2023-02-04T03:39:15;96978.50;;;3.30;75.23
66479;BME280;53294;47.912;13.526;2023-02-04T03:41:42;96990.97;;;3.29;75.26
66479;BME280;53294;47.912;13.526;2023-02-04T03:44:09;96989.81;;;3.37;75.14
66479;BME280;53294;47.912;13.526;2023-02-04T03:46:35;96993.63;;;3.29;74.15
66479;BME280;53294;47.912;13.526;2023-02-04T03:49:02;97006.44;;;3.20;74.68
66479;BME280;53294;47.912;13.526;2023-02-04T03:51:29;97004.69;;;3.26;74.78
66479;BME280;53294;47.912;13.526;2023-02-04T03:53:55;97004.69;;;3.26;74.55
66479;BME280;53294;47.912;13.526;2023-02-04T03:56:22;97005.25;;;3.16;74.85
66479;BME280;53294;47.912;13.526;2023-02-04T03:58:48;97015.91;;;3.28;74.98
66479;BME280;53294;47.912;13.526;2023-02-04T04:01:15;97019.25;;;3.23;75.06
66479;BME280;53294;47.912;13.526;2023-02-04T04:03:42;97016.59;;;3.23;75.05
66479;BME280;53294;47.912;13.526;2023-02-04T04:06:08;97023.16;;;3.21;75.46
66479;BME280;53294;47.912;13.526;2023-02-04T04:08:37;97024.34;;;3.25;75.67
66479;BME280;53294;47.912;13.526;2023-02-04T04:11:04;97029.03;;;3.23;75.63
66479;BME280;53294;47.912;13.526;2023-02-04T04:13:30;97030.09;;;3.22;75.72
66479;BME280;53294;47.912;13.526;2023-02-04T04:15:57;97039.81;;;3.28;75.46
66479;BME280;53294;47.912;13.526;2023-02-04T04:18:24;97028.03;;;3.24;75.68
66479;BME280;53294;47.912;13.526;2023-02-04T04:20:50;97024.78;;;3.22;75.74
66479;BME280;53294;47.912;13.526;2023-02-04T04:23:17;97004.75;;;3.08;76.48
66479;BME280;53294;47.912;13.526;2023-02-04T04:25:44;97008.59;;;3.12;76.72
66479;BME280;53294;47.912;13.526;2023-02-04T04:28:10;96998.19;;;2.98;76.34
66479;BME280;53294;47.912;13.526;2023-02-04T04:30:37;97008.09;;;2.91;76.40
66479;BME280;53294;47.912;13.526;2023-02-04T04:33:04;97014.13;;;2.98;75.55
66479;BME280;53294;47.912;13.526;2023-02-04T04:35:30;97021.47;;;2.96;75.16
66479;BME280;53294;47.912;13.526;2023-02-04T04:37:57;97003.22;;;2.88;75.02
66479;BME280;53294;47.912;13.526;2023-02-04T04:40:23;97019.50;;;2.92;75.26
66479;BME280;53294;47.912;13.526;2023-02-04T04:42:50;97026.53;;;2.86;74.65
66479;BME280;53294;47.912;13.526;2023-02-04T04:45:17;97021.69;;;2.83;74.39
66479;BME280;53294;47.912;13.526;2023-02-04T04:47:43;97033.44;;;2.87;74.25
66479;BME280;53294;47.912;13.526;2023-02-04T04:50:10;97035.41;;;2.92;74.15
66479;BME280;53294;47.912;13.526;2023-02-04T04:52:37;97040.66;;;2.98;73.56
66479;BME280;53294;47.912;13.526;2023-02-04T04:55:05;97049.06;;;2.95;73.02
66479;BME280;53294;47.912;13.526;2023-02-04T04:57:31;97050.69;;;2.96;72.28
66479;BME280;53294;47.912;13.526;2023-02-04T04:59:58;97060.97;;;3.04;72.12
66479;BME280;53294;47.912;13.526;2023-02-04T05:02:25;97055.44;;;3.06;71.86
66479;BME280;53294;47.912;13.526;2023-02-04T05:04:51;97059.38;;;3.03;71.08
66479;BME280;53294;47.912;13.526;2023-02-04T05:07:18;97075.66;;;3.07;70.89
66479;BME280;53294;47.912;13.526;2023-02-04T05:09:45;97079.31;;;3.06;70.75
66479;BME280;53294;47.912;13.526;2023-02-04T05:12:11;97076.38;;;3.14;70.77
66479;BME280;53294;47.912;13.526;2023-02-04T05:14:38;97080.28;;;3.12;70.91
66479;BME280;53294;47.912;13.526;2023-02-04T05:17:04;97080.28;;;3.12;70.96
66479;BME280;53294;47.912;13.526;2023-02-04T05:19:31;97083.38;;;3.09;70.82
66479;BME280;53294;47.912;13.526;2023-02-04T05:21:58;97101.38;;;3.07;70.57
66479;BME280;53294;47.912;13.526;2023-02-04T05:24:27;97099.44;;;3.14;70.19
66479;BME280;53294;47.912;13.526;2023-02-04T05:26:53;97106.97;;;3.17;70.33
66479;BME280;53294;47.912;13.526;2023-02-04T05:29:20;97090.91;;;3.12;70.37
66479;BME280;53294;47.912;13.526;2023-02-04T05:31:47;97084.13;;;3.16;69.97
66479;BME280;53294;47.912;13.526;2023-02-04T05:34:13;97081.06;;;3.00;70.09
66479;BME280;53294;47.912;13.526;2023-02-04T05:36:40;97099.75;;;3.05;69.79
66479;BME280;53294;47.912;13.526;2023-02-04T05:39:07;97117.53;;;3.05;70.06
66479;BME280;53294;47.912;13.526;2023-02-04T05:41:33;97111.19;;;3.06;69.80
66479;BME280;53294;47.912;13.526;2023-02-04T05:44:00;97128.28;;;3.10;69.42
66479;BME280;53294;47.912;13.526;2023-02-04T05:46:26;97133.81;;;3.09;69.71
66479;BME280;53294;47.912;13.526;2023-02-04T05:48:53;97138.25;;;3.15;69.36
66479;BME280;53294;47.912;13.526;2023-02-04T05:51:19;97144.78;;;3.12;69.23
66479;BME280;53294;47.912;13.526;2023-02-04T05:53:46;97134.34;;;3.17;68.42
66479;BME280;53294;47.912;13.526;2023-02-04T05:56:13;97134.00;;;3.26;69.00
66479;BME280;53294;47.912;13.526;2023-02-04T05:58:39;97140.28;;;3.31;68.43
66479;BME280;53294;47.912;13.526;2023-02-04T06:01:06;97142.44;;;3.22;68.37
66479;BME280;53294;47.912;13.526;2023-02-04T06:03:33;97142.06;;;3.19;68.58
66479;BME280;53294;47.912;13.526;2023-02-04T06:05:59;97141.69;;;3.15;68.10
66479;BME280;53294;47.912;13.526;2023-02-04T06:08:26;97150.28;;;3.17;68.72
66479;BME280;53294;47.912;13.526;2023-02-04T06:10:52;97145.19;;;3.16;67.95
66479;BME280;53294;47.912;13.526;2023-02-04T06:13:19;97137.66;;;3.13;67.99
66479;BME280;53294;47.912;13.526;2023-02-04T06:15:46;97160.28;;;3.15;68.01
66479;BME280;53294;47.912;13.526;2023-02-04T06:18:12;97172.31;;;3.18;68.01
66479;BME280;53294;47.912;13.526;2023-02-04T06:20:39;97163.75;;;3.16;67.76
66479;BME280;53294;47.912;13.526;2023-02-04T06:23:06;97176.44;;;3.14;67.79
66479;BME280;53294;47.912;13.526;2023-02-04T06:25:32;97160.44;;;3.20;67.48
66479;BME280;53294;47.912;13.526;2023-02-04T06:27:59;97183.59;;;3.13;67.08
66479;BME280;53294;47.912;13.526;2023-02-04T06:30:26;97198.72;;;3.13;67.91
66479;BME280;53294;47.912;13.526;2023-02-04T06:32:52;97202.09;;;3.20;68.22
66479;BME280;53294;47.912;13.526;2023-02-04T06:35:19;97210.22;;;3.25;67.66
66479;BME280;53294;47.912;13.526;2023-02-04T06:37:46;97216.13;;;3.27;67.74
66479;BME280;53294;47.912;13.526;2023-02-04T06:40:13;97218.31;;;3.30;68.06
66479;BME280;53294;47.912;13.526;2023-02-04T06:42:39;97211.25;;;3.24;67.53
66479;BME280;53294;47.912;13.526;2023-02-04T06:45:06;97200.06;;;3.22;67.66
66479;BME280;53294;47.912;13.526;2023-02-04T06:47:33;97215.53;;;3.25;67.73
66479;BME280;53294;47.912;13.526;2023-02-04T06:49:59;97223.50;;;3.25;67.92
66479;BME280;53294;47.912;13.526;2023-02-04T06:52:26;97237.66;;;3.19;67.81
66479;BME280;53294;47.912;13.526;2023-02-04T06:54:53;97240.47;;;3.24;68.37
66479;BME280;53294;47.912;13.526;2023-02-04T06:57:19;97242.31;;;3.23;69.08
66479;BME280;53294;47.912;13.526;2023-02-04T06:59:46;97241.94;;;3.20;69.78
66479;BME280;53294;47.912;13.526;2023-02-04T07:02:13;97240.16;;;3.14;70.52
66479;BME280;53294;47.912;13.526;2023-02-04T07:04:40;97247.53;;;3.12;71.03
66479;BME280;53294;47.912;13.526;2023-02-04T07:07:10;97282.50;;;3.09;71.41
66479;BME280;53294;47.912;13.526;2023-02-04T07:09:36;97275.84;;;2.99;71.89
66479;BME280;53294;47.912;13.526;2023-02-04T07:12:03;97293.56;;;3.05;71.92
66479;BME280;53294;47.912;13.526;2023-02-04T07:14:30;97319.09;;;3.07;73.38
66479;BME280;53294;47.912;13.526;2023-02-04T07:16:56;97314.75;;;2.87;74.57
66479;BME280;53294;47.912;13.526;2023-02-04T07:19:24;97324.31;;;2.69;74.31
66479;BME280;53294;47.912;13.526;2023-02-04T07:21:51;97343.03;;;2.75;74.29
66479;BME280;53294;47.912;13.526;2023-02-04T07:24:19;97358.72;;;2.83;74.72
66479;BME280;53294;47.912;13.526;2023-02-04T07:26:46;97356.72;;;2.72;75.09
66479;BME280;53294;47.912;13.526;2023-02-04T07:29:13;97352.41;;;2.77;74.80
66479;BME280;53294;47.912;13.526;2023-02-04T07:31:49;97374.22;;;2.79;74.95
66479;BME280;53294;47.912;13.526;2023-02-04T07:34:19;97389.19;;;2.74;74.96
66479;BME280;53294;47.912;13.526;2023-02-04T07:36:46;97394.66;;;2.79;75.22
66479;BME280;53294;47.912;13.526;2023-02-04T07:39:13;97391.28;;;2.90;74.52
66479;BME280;53294;47.912;13.526;2023-02-04T07:41:39;97394.66;;;2.79;75.21
66479;BME280;53294;47.912;13.526;2023-02-04T07:44:06;97391.47;;;2.38;76.76
66479;BME280;53294;47.912;13.526;2023-02-04T07:46:33;97396.72;;;2.45;76.88
66479;BME280;53294;47.912;13.526;2023-02-04T07:49:00;97403.19;;;2.56;75.99
66479;BME280;53294;47.912;13.526;2023-02-04T07:51:26;97408.88;;;2.59;75.96
66479;BME280;53294;47.912;13.526;2023-02-04T07:53:55;97422.97;;;2.60;75.72
66479;BME280;53294;47.912;13.526;2023-02-04T07:56:21;97426.94;;;2.76;74.90
66479;BME280;53294;47.912;13.526;2023-02-04T07:58:48;97438.66;;;2.93;74.23
66479;BME280;53294;47.912;13.526;2023-02-04T08:01:15;97433.59;;;2.85;74.42
66479;BME280;53294;47.912;13.526;2023-02-04T08:03:42;97438.38;;;3.01;74.24
66479;BME280;53294;47.912;13.526;2023-02-04T08:06:09;97444.28;;;2.78;74.66
66479;BME280;53294;47.912;13.526;2023-02-04T08:08:36;97446.94;;;2.78;74.46
66479;BME280;53294;47.912;13.526;2023-02-04T08:11:02;97451.09;;;2.93;74.58
66479;BME280;53294;47.912;13.526;2023-02-04T08:13:29;97459.19;;;3.04;74.21
66479;BME280;53294;47.912;13.526;2023-02-04T08:15:55;97464.31;;;2.99;74.34
66479;BME280;53294;47.912;13.526;2023-02-04T08:18:22;97472.63;;;3.10;74.41
66479;BME280;53294;47.912;13.526;2023-02-04T08:20:50;97478.75;;;3.10;74.46
66479;BME280;53294;47.912;13.526;2023-02-04T08:23:17;97492.19;;;3.15;74.33
66479;BME280;53294;47.912;13.526;2023-02-04T08:25:44;97491.97;;;3.17;74.49
66479;BME280;53294;47.912;13.526;2023-02-04T08:28:11;97495.69;;;3.09;75.18
66479;BME280;53294;47.912;13.526;2023-02-04T08:30:37;97494.53;;;3.05;75.53
66479;BME280;53294;47.912;13.526;2023-02-04T08:33:04;97496.03;;;2.94;74.99
66479;BME280;53294;47.912;13.526;2023-02-04T08:35:31;97486.63;;;2.98;75.60
66479;BME280;53294;47.912;13.526;2023-02-04T08:37:57;97510.63;;;2.72;76.06
66479;BME280;53294;47.912;13.526;2023-02-04T08:40:24;97510.41;;;2.73;76.19
66479;BME280;53294;47.912;13.526;2023-02-04T08:42:51;97512.00;;;2.81;75.77
66479;BME280;53294;47.912;13.526;2023-02-04T08:45:17;97512.28;;;3.04;75.28
66479;BME280;53294;47.912;13.526;2023-02-04T08:47:44;97504.88;;;3.13;75.38
66479;BME280;53294;47.912;13.526;2023-02-04T08:50:11;97503.44;;;3.42;75.78
66479;BME280;53294;47.912;13.526;2023-02-04T08:52:37;97505.13;;;3.81;74.83
66479;BME280;53294;47.912;13.526;2023-02-04T08:55:04;97514.69;;;4.07;74.75
66479;BME280;53294;47.912;13.526;2023-02-04T08:57:31;97513.09;;;4.24;74.19
66479;BME280;53294;47.912;13.526;2023-02-04T08:59:59;97519.47;;;4.54;74.73
66479;BME280;53294;47.912;13.526;2023-02-04T09:02:26;97529.03;;;4.92;74.46
66479;BME280;53294;47.912;13.526;2023-02-04T09:04:53;97522.81;;;4.98;72.28
66479;BME280;53294;47.912;13.526;2023-02-04T09:07:19;97518.16;;;5.24;71.98
66479;BME280;53294;47.912;13.526;2023-02-04T09:09:47;97519.06;;;5.17;71.81
66479;BME280;53294;47.912;13.526;2023-02-04T09:12:13;97518.63;;;5.44;72.18
66479;BME280;53294;47.912;13.526;2023-02-04T09:14:40;97525.75;;;5.86;71.95
66479;BME280;53294;47.912;13.526;2023-02-04T09:17:06;97523.19;;;6.15;71.65
66479;BME280;53294;47.912;13.526;2023-02-04T09:19:33;97522.97;;;6.28;71.23
66479;BME280;53294;47.912;13.526;2023-02-04T09:22:00;97518.66;;;6.15;70.65
66479;BME280;53294;47.912;13.526;2023-02-04T09:24:26;97524.25;;;6.02;69.71
66479;BME280;53294;47.912;13.526;2023-02-04T09:26:53;97530.63;;;6.01;69.14
66479;BME280;53294;47.912;13.526;2023-02-04T09:29:20;97537.22;;;5.86;68.96
66479;BME280;53294;47.912;13.526;2023-02-04T09:31:46;97546.69;;;5.58;68.17
66479;BME280;53294;47.912;13.526;2023-02-04T09:34:13;97556.66;;;5.63;67.96
66479;BME280;53294;47.912;13.526;2023-02-04T09:36:40;97567.28;;;5.39;68.58
66479;BME280;53294;47.912;13.526;2023-02-04T09:39:07;97561.78;;;5.65;68.44
66479;BME280;53294;47.912;13.526;2023-02-04T09:41:38;97563.72;;;5.57;67.77
66479;BME280;53294;47.912;13.526;2023-02-04T09:44:13;97575.00;;;5.29;66.43
66479;BME280;53294;47.912;13.526;2023-02-04T09:46:48;97592.91;;;5.10;66.19
66479;BME280;53294;47.912;13.526;2023-02-04T09:49:15;97598.41;;;5.27;66.78
66479;BME280;53294;47.912;13.526;2023-02-04T09:51:43;97608.59;;;5.00;66.25
66479;BME280;53294;47.912;13.526;2023-02-04T09:54:13;97608.34;;;4.90;66.23
66479;BME280;53294;47.912;13.526;2023-02-04T09:56:41;97624.44;;;4.95;66.78
66479;BME280;53294;47.912;13.526;2023-02-04T09:59:12;97631.56;;;4.82;67.22
66479;BME280;53294;47.912;13.526;2023-02-04T10:01:40;97633.19;;;5.02;66.63
66479;BME280;53294;47.912;13.526;2023-02-04T10:04:14;97625.78;;;5.04;65.43
66479;BME280;53294;47.912;13.526;2023-02-04T10:06:41;97637.91;;;5.00;66.12
66479;BME280;53294;47.912;13.526;2023-02-04T10:09:10;97645.63;;;4.90;66.30
66479;BME280;53294;47.912;13.526;2023-02-04T10:11:38;97640.75;;;4.68;66.10
66479;BME280;53294;47.912;13.526;2023-02-04T10:14:12;97644.56;;;4.72;66.06
66479;BME280;53294;47.912;13.526;2023-02-04T10:16:40;97647.59;;;4.57;67.08
66479;BME280;53294;47.912;13.526;2023-02-04T10:19:13;97643.84;;;4.83;66.30
66479;BME280;53294;47.912;13.526;2023-02-04T10:21:43;97641.09;;;4.90;66.00
66479;BME280;53294;47.912;13.526;2023-02-04T10:24:17;97646.78;;;4.94;66.04
66479;BME280;53294;47.912;13.526;2023-02-04T10:26:46;97643.69;;;4.78;65.56
66479;BME280;53294;47.912;13.526;2023-02-04T10:29:21;97641.19;;;4.83;66.38
66479;BME280;53294;47.912;13.526;2023-02-04T10:31:50;97638.78;;;4.75;64.55
66479;BME280;53294;47.912;13.526;2023-02-04T10:36:52;97640.00;;;4.79;65.57
66479;BME280;53294;47.912;13.526;2023-02-04T10:39:23;97645.44;;;5.03;65.59
66479;BME280;53294;47.912;13.526;2023-02-04T10:41:55;97646.19;;;5.10;65.11
66479;BME280;53294;47.912;13.526;2023-02-04T10:47:02;97647.81;;;5.11;65.09
66479;BME280;53294;47.912;13.526;2023-02-04T10:49:30;97644.94;;;5.13;64.90
66479;BME280;53294;47.912;13.526;2023-02-04T10:51:57;97645.47;;;5.33;63.99
66479;BME280;53294;47.912;13.526;2023-02-04T10:54:26;97642.41;;;4.99;62.54
66479;BME280;53294;47.912;13.526;2023-02-04T10:57:15;97648.84;;;4.92;64.03
66479;BME280;53294;47.912;13.526;2023-02-04T10:59:44;97650.72;;;4.91;63.84
66479;BME280;53294;47.912;13.526;2023-02-04T11:04:59;97652.41;;;4.67;63.63
66479;BME280;53294;47.912;13.526;2023-02-04T11:07:27;97650.63;;;4.61;63.80
66479;BME280;53294;47.912;13.526;2023-02-04T11:09:54;97644.28;;;4.62;63.73
66479;BME280;53294;47.912;13.526;2023-02-04T11:12:36;97642.50;;;4.56;64.61
66479;BME280;53294;47.912;13.526;2023-02-04T11:15:04;97641.00;;;4.60;64.89
66479;BME280;53294;47.912;13.526;2023-02-04T11:17:33;97647.84;;;4.74;65.12
66479;BME280;53294;47.912;13.526;2023-02-04T11:20:13;97645.44;;;4.84;64.55
66479;BME280;53294;47.912;13.526;2023-02-04T11:22:45;97641.00;;;4.60;62.89
66479;BME280;53294;47.912;13.526;2023-02-04T11:25:34;97647.38;;;4.96;64.05
66479;BME280;53294;47.912;13.526;2023-02-04T11:28:13;97645.00;;;4.88;62.10
66479;BME280;53294;47.912;13.526;2023-02-04T11:30:40;97646.31;;;4.60;62.71
66479;BME280;53294;47.912;13.526;2023-02-04T11:33:22;97644.41;;;4.67;61.63
66479;BME280;53294;47.912;13.526;2023-02-04T11:35:59;97643.91;;;4.95;64.16
66479;BME280;53294;47.912;13.526;2023-02-04T11:38:29;97641.63;;;4.99;62.30
66479;BME280;53294;47.912;13.526;2023-02-04T11:40:57;97645.44;;;5.03;62.70
66479;BME280;53294;47.912;13.526;2023-02-04T11:43:25;97637.22;;;5.04;61.69
66479;BME280;53294;47.912;13.526;2023-02-04T11:46:04;97639.09;;;4.85;61.35
66479;BME280;53294;47.912;13.526;2023-02-04T11:48:31;97634.56;;;5.04;62.44
66479;BME280;53294;47.912;13.526;2023-02-04T11:51:00;97631.84;;;5.11;62.92
66479;BME280;53294;47.912;13.526;2023-02-04T11:53:28;97630.06;;;5.05;62.33
66479;BME280;53294;47.912;13.526;2023-02-04T11:55:56;97627.91;;;4.95;61.76
66479;BME280;53294;47.912;13.526;2023-02-04T11:58:23;97638.66;;;4.89;62.18
66479;BME280;53294;47.912;13.526;2023-02-04T12:00:51;97632.72;;;5.05;61.90
66479;BME280;53294;47.912;13.526;2023-02-04T12:05:50;97635.78;;;4.90;62.50
66479;BME280;53294;47.912;13.526;2023-02-04T12:10:59;97631.91;;;4.67;64.07
66479;BME280;53294;47.912;13.526;2023-02-04T12:13:26;97630.97;;;4.62;63.98
66479;BME280;53294;47.912;13.526;2023-02-04T12:16:03;97640.19;;;4.59;63.63
66479;BME280;53294;47.912;13.526;2023-02-04T12:18:32;97638.56;;;4.58;63.66
66479;BME280;53294;47.912;13.526;2023-02-04T12:21:00;97643.75;;;4.72;63.70
66479;BME280;53294;47.912;13.526;2023-02-04T12:23:28;97641.75;;;4.67;63.15
66479;BME280;53294;47.912;13.526;2023-02-04T12:25:56;97647.06;;;4.48;63.15
66479;BME280;53294;47.912;13.526;2023-02-04T12:28:23;97645.75;;;4.58;63.84
66479;BME280;53294;47.912;13.526;2023-02-04T12:30:50;97641.00;;;4.60;63.68
66479;BME280;53294;47.912;13.526;2023-02-04T12:33:16;97643.75;;;4.72;61.82
66479;BME280;53294;47.912;13.526;2023-02-04T12:35:43;97639.47;;;4.89;61.09
66479;BME280;53294;47.912;13.526;2023-02-04T12:38:10;97641.19;;;4.83;61.06
66479;BME280;53294;47.912;13.526;2023-02-04T12:40:37;97633.31;;;4.89;60.53
66479;BME280;53294;47.912;13.526;2023-02-04T12:43:03;97636.56;;;4.91;61.11
66479;BME280;53294;47.912;13.526;2023-02-04T12:45:31;97635.25;;;4.44;59.56
66479;BME280;53294;47.912;13.526;2023-02-04T12:47:59;97640.41;;;4.39;60.77
66479;BME280;53294;47.912;13.526;2023-02-04T12:50:26;97639.28;;;4.28;59.24
66479;BME280;53294;47.912;13.526;2023-02-04T12:52:55;97643.25;;;4.44;60.28
66479;BME280;53294;47.912;13.526;2023-02-04T12:55:24;97648.16;;;4.41;61.67
66479;BME280;53294;47.912;13.526;2023-02-04T12:57:51;97642.81;;;4.47;59.16
66479;BME280;53294;47.912;13.526;2023-02-04T13:00:19;97650.94;;;4.53;60.76
66479;BME280;53294;47.912;13.526;2023-02-04T13:02:46;97652.53;;;4.54;60.35
66479;BME280;53294;47.912;13.526;2023-02-04T13:05:14;97653.06;;;4.44;59.95
66479;BME280;53294;47.912;13.526;2023-02-04T13:07:41;97655.81;;;4.56;58.56
66479;BME280;53294;47.912;13.526;2023-02-04T13:10:08;97659.94;;;4.52;59.84
66479;BME280;53294;47.912;13.526;2023-02-04T13:12:35;97658.75;;;4.47;59.50
66479;BME280;53294;47.912;13.526;2023-02-04T13:15:02;97666.91;;;4.53;59.11
66479;BME280;53294;47.912;13.526;2023-02-04T13:17:29;97662.53;;;4.40;58.27